• Join FlightAware (Why Join?)
  • Login
  • US Flag 
09:55AM EDT


 

Airport Tracker/Info


-or-


 

Live Flight TrackerFlight Track Log ✈ SAS4416 ✈ 24-Jun-2013 ✈ ENGM / OSL - ENTC / TOS

Flight Track Log - Related Links

Times and Time Zones

All times are in EDT time to prevent confusion due to time zone crossing. See the SAS4416 flight status page for this flight to view local times or setup timezone preferences in your user account.

Time Position Orientation Groundspeed Altitude Reporting Facility
EDT Latitude Longitude Course Direction KTS MPH feet Rate Location/Type
06:06AM 60.1520 10.9950 245° Southwest 204 235 4,000  Level FlightAware
06:06AM 60.1500 10.9860 246° West 204 235 4,300 3,300 Climbing FlightAware
06:07AM 60.1470 10.9600 257° West 216 249 5,100 2,940 Climbing FlightAware
06:07AM 60.1930 10.8850 321° Northwest 272 313 7,700 2,520 Climbing FlightAware
06:08AM 60.2320 10.8820 358° North 300 345 8,700 2,220 Climbing FlightAware
06:08AM 60.2430 10.8930 26° Northeast 303 349 9,200 3,000 Climbing FlightAware
06:09AM 60.3000 10.9590 30° Northeast 315 362 11,500 2,700 Climbing FlightAware
06:10AM 60.3520 11.0190 30° Northeast 336 387 13,100 2,220 Climbing FlightAware
06:10AM 60.4090 11.0840 29° Northeast 369 425 14,500 2,460 Climbing FlightAware
06:11AM 60.4720 11.1560 29° Northeast 380 437 16,600 2,880 Climbing FlightAware
06:12AM 60.5440 11.2390 30° Northeast 394 453 18,700 2,460 Climbing FlightAware
06:12AM 60.6080 11.3120 29° Northeast 412 474 20,000 1,980 Climbing FlightAware
06:13AM 60.6830 11.3890 27° Northeast 432 497 21,500 2,040 Climbing FlightAware
06:14AM 60.7710 11.4090 North 444 511 23,000 2,040 Climbing FlightAware
06:14AM 60.8440 11.4190 North 451 519 24,200 2,100 Climbing FlightAware
06:15AM 60.9640 11.4360 North 460 529 26,300 2,100 Climbing FlightAware
06:16AM 61.0510 11.4490 North 464 534 27,700 2,040 Climbing FlightAware
06:17AM 61.1470 11.4620 North 462 532 29,200 2,040 Climbing FlightAware
06:17AM 61.2270 11.4740 North 454 522 30,500 1,980 Climbing FlightAware
06:18AM 61.3230 11.4880 North 449 517 32,000 1,860 Climbing FlightAware
06:19AM 61.4090 11.5000 North 440 506 33,300 1,140 Climbing FlightAware
06:20AM 61.4910 11.5130 North 456 525 33,600 360 Climbing FlightAware
06:20AM 61.5820 11.5260 North 478 550 33,800 480 Climbing FlightAware
06:21AM 61.6710 11.5390 North 487 560 34,300 780 Climbing FlightAware
06:22AM 61.7730 11.5550 North 487 560 35,000 480 Climbing FlightAware
06:22AM 61.8610 11.5680 North 477 549 35,000  Level FlightAware
06:23AM 61.9530 11.5830 North 477 549 35,000  Level FlightAware
06:24AM 62.0500 11.5970 North 476 548 35,000  Level FlightAware
06:24AM 62.1420 11.6110 North 475 547 35,000  Level FlightAware
06:25AM 62.2380 11.6260 North 473 544 35,000  Level FlightAware
06:26AM 62.3250 11.6390 North 472 543 35,000  Level FlightAware
06:27AM 62.4200 11.6540 North 473 544 35,000  Level FlightAware
06:27AM 62.5090 11.6680 North 473 544 35,000  Level FlightAware
06:28AM 62.5960 11.6820 North 473 544 35,000  Level FlightAware
06:29AM 62.6920 11.6970 North 476 548 35,000  Level FlightAware
06:29AM 62.7810 11.7110 North 476 548 35,000  Level FlightAware
06:30AM 62.8770 11.7270 North 477 549 35,000  Level FlightAware
06:31AM 62.9700 11.7420 North 479 551 35,000  Level FlightAware
06:31AM 63.0560 11.7560 North 479 551 35,000  Level FlightAware
06:32AM 63.1530 11.7720 North 480 552 35,000  Level FlightAware
06:33AM 63.2430 11.7870 North 480 552 35,000  Level FlightAware
06:34AM 63.3380 11.8080 North 476 548 35,000  Level FlightAware
06:34AM 63.4230 11.8640 16° North 474 545 35,000  Level FlightAware
06:35AM 63.5100 11.9340 20° North 472 543 35,000  Level FlightAware
06:36AM 63.5980 12.0060 20° North 475 547 35,000  Level FlightAware
06:36AM 63.6810 12.0750 20° North 477 549 35,000  Level FlightAware
06:37AM 63.7650 12.1440 20° North 476 548 35,000  Level FlightAware
06:38AM 63.8550 12.2190 20° North 476 548 35,000  Level FlightAware
06:38AM 63.9450 12.2940 20° North 479 551 35,000  Level FlightAware
06:39AM 64.0320 12.3670 20° North 479 551 35,000  Level FlightAware
06:40AM 64.1190 12.4410 20° North 479 551 35,000  Level FlightAware
06:40AM 64.1970 12.5080 20° North 480 552 35,000  Level FlightAware
06:41AM 64.2890 12.5870 20° North 482 555 35,000  Level FlightAware
06:42AM 64.3810 12.6660 20° North 485 558 35,000  Level FlightAware
06:43AM 64.4690 12.7430 21° North 484 557 35,000  Level FlightAware
06:43AM 64.5530 12.8170 21° North 485 558 35,000  Level FlightAware
06:44AM 64.6450 12.8980 21° North 487 560 35,000  Level FlightAware
06:45AM 64.7300 12.9730 21° North 487 560 35,000  Level FlightAware
06:45AM 64.8180 13.0520 21° North 488 562 35,000  Level FlightAware
06:46AM 64.9050 13.1310 21° North 489 563 35,000  Level FlightAware
06:47AM 65.0000 13.2160 21° North 491 565 35,000  Level FlightAware
06:47AM 65.0790 13.2890 21° North 490 564 35,000  Level FlightAware
06:48AM 65.1690 13.3720 21° North 481 554 35,000  Level FlightAware
06:49AM 65.2490 13.4460 21° North 481 554 35,000  Level FlightAware
06:50AM 65.3450 13.5360 21° North 481 554 35,000  Level FlightAware
06:50AM 65.4310 13.6160 21° North 481 554 35,000  Level FlightAware
06:51AM 65.5140 13.6950 22° Northeast 486 559 35,000  Level FlightAware
06:52AM 65.6080 13.7860 22° Northeast 486 559 35,000  Level FlightAware
06:52AM 65.7040 13.8770 21° North 485 558 35,000  Level FlightAware
06:53AM 65.7750 13.9460 22° Northeast 484 557 35,000  Level FlightAware
06:54AM 65.8710 14.0320 20° North 479 551 35,000  Level FlightAware
06:54AM 65.9550 14.1050 19° North 479 551 35,000  Level FlightAware
06:55AM 66.0490 14.1880 20° North 478 550 35,000  Level FlightAware
06:56AM 66.1430 14.2720 20° North 477 549 35,000  Level FlightAware
06:57AM 66.2210 14.3430 20° North 484 557 35,000  Level FlightAware
06:57AM 66.3120 14.4270 20° North 477 549 35,000  Level FlightAware
06:58AM 66.3970 14.5050 20° North 482 555 35,000  Level FlightAware
06:59AM 66.4820 14.5830 20° North 482 555 35,000  Level FlightAware
06:59AM 66.5770 14.6710 20° North 482 555 35,000  Level FlightAware
07:00AM 66.6700 14.7580 20° North 482 555 35,000  Level FlightAware
07:01AM 66.7540 14.8380 21° North 479 551 35,000  Level FlightAware
07:01AM 66.8360 14.9170 21° North 479 551 35,000  Level FlightAware
07:02AM 66.9210 15.0030 22° Northeast 482 555 35,000  Level FlightAware
07:03AM 67.0100 15.1210 27° Northeast 473 544 35,000  Level FlightAware
07:04AM 67.0880 15.2260 28° Northeast 472 543 35,000  Level FlightAware
07:04AM 67.1660 15.3320 28° Northeast 471 542 35,000  Level FlightAware
07:05AM 67.2540 15.4520 28° Northeast 471 542 35,000  Level FlightAware
07:06AM 67.3410 15.5720 28° Northeast 473 544 35,000  Level FlightAware
07:06AM 67.4200 15.6800 28° Northeast 474 545 35,000  Level FlightAware
07:07AM 67.4990 15.7900 28° Northeast 474 545 35,000  Level FlightAware
07:08AM 67.5790 15.9030 28° Northeast 474 545 35,000  Level FlightAware
07:08AM 67.6540 16.0100 28° Northeast 479 551 35,000  Level FlightAware
07:09AM 67.7350 16.1250 28° Northeast 474 545 35,000  Level FlightAware
07:10AM 67.8520 16.2950 29° Northeast 476 548 35,000 -840 Level FlightAware
07:11AM 67.9560 16.4470 29° Northeast 465 535 33,500 -2,100 Descending FlightAware
07:12AM 68.0370 16.5660 29° Northeast 474 545 31,700 -2,340 Descending FlightAware
07:12AM 68.1200 16.6880 29° Northeast 459 528 30,200 -2,220 Descending FlightAware
07:13AM 68.1970 16.8030 29° Northeast 461 531 28,700 -2,100 Descending FlightAware
07:14AM 68.2790 16.9280 29° Northeast 444 511 27,300 -1,980 Descending FlightAware
07:15AM 68.3510 17.0360 29° Northeast 444 511 25,900 -2,040 Descending FlightAware
07:15AM 68.4220 17.1440 29° Northeast 429 494 24,600 -1,920 Descending FlightAware
07:16AM 68.5010 17.2660 29° Northeast 425 489 23,200 -1,920 Descending FlightAware
07:17AM 68.5680 17.3700 30° Northeast 410 472 21,900 -1,860 Descending FlightAware
07:17AM 68.6390 17.4830 30° Northeast 408 470 20,600 -1,800 Descending FlightAware
07:18AM 68.7060 17.5870 29° Northeast 391 450 19,400 -1,800 Descending FlightAware
07:19AM 68.7680 17.6860 30° Northeast 387 445 18,200 -1,740 Descending FlightAware
07:19AM 68.8350 17.7940 30° Northeast 374 430 17,000 -1,680 Descending FlightAware
07:20AM 68.8990 17.8970 30° Northeast 375 432 15,800 -1,740 Descending FlightAware
07:21AM 68.9580 17.9920 30° Northeast 367 422 14,700 -1,680 Descending FlightAware
07:22AM 69.0230 18.0980 30° Northeast 359 413 13,500 -1,680 Descending FlightAware
07:22AM 69.0800 18.1910 30° Northeast 352 405 12,400 -1,440 Descending FlightAware
07:23AM 69.1310 18.2910 35° Northeast 332 382 11,600 -1,080 Descending FlightAware
07:24AM 69.1820 18.4060 39° Northeast 310 357 10,900 -1,380 Descending FlightAware
07:24AM 69.2170 18.4820 38° Northeast 315 362 9,900 -1,920 Descending FlightAware
07:24AM 69.2340 18.5210 39° Northeast 315 362 9,500 -1,380 Descending FlightAware
07:25AM 69.2640 18.5760 33° Northeast 310 357 9,000 -1,200 Descending FlightAware
07:25AM 69.2830 18.5970 21° North 304 350 8,700 -1,380 Descending FlightAware
07:26AM 69.3150 18.6340 22° Northeast 301 346 8,100 -1,320 Descending FlightAware
07:26AM 69.3540 18.6770 21° North 294 338 7,500 -960 Descending FlightAware
07:26AM 69.3730 18.6930 17° North 284 327 7,400 -480 Descending FlightAware
07:27AM 69.4010 18.7170 17° North 265 305 7,200 -720 Descending FlightAware
07:27AM 69.4260 18.7370 16° North 252 290 6,900 -1,380 Descending FlightAware
07:27AM 69.4500 18.7630 21° North 246 283 6,200 -1,920 Descending FlightAware
07:28AM 69.4790 18.7870 16° North 238 274 5,300 -1,980 Descending FlightAware
07:28AM 69.5110 18.8040 11° North 228 262 4,400 -1,740 Descending FlightAware
07:29AM 69.5260 18.8140 13° North 221 254 4,000 -1,620 Descending FlightAware
07:29AM 69.5550 18.8340 14° North 212 244 3,200 -1,560 Descending FlightAware
07:30AM 69.5780 18.8490 13° North 198 228 2,600 -1,320 Descending FlightAware
07:30AM 69.6040 18.8660 13° North 184 212 2,000 -1,080 Descending FlightAware
07:30AM 69.6160 18.8740 13° North 167 192 1,800 -1,380 Descending FlightAware
07:31AM 69.6330 18.8850 13° North 158 182 1,100 -1,320 Descending FlightAware
07:31AM 69.6540 18.8990 13° North 143 165 600 -1,080 Descending FlightAware
07:31AM 69.6600 18.9030 13° North 138 159 400 -900 Descending FlightAware
07:32AM 69.6750 18.9130 13° North 133 153 100 -720 Descending FlightAware
07:32AM 69.6820 19.6260 88° East 124 143 -420 Descending FlightAware
07:35AM 69.6833 18.9189 271° West  Level Estimated
07:36AM 69.6833 18.9189 353° North  Level Estimated
07:37AM 69.6833 18.9189 353° North  Level Estimated
07:38AM 69.6833 18.9189 353° North  Level Estimated